sensor_id;sensor_type;location;lat;lon;timestamp;P1;durP1;ratioP1;P2;durP2;ratioP2
2940;SDS011;1480;51.456;6.670;2022-12-18T00:01:36;18.80;;;10.37;;
2940;SDS011;1480;51.456;6.670;2022-12-18T00:04:04;15.33;;;7.77;;
2940;SDS011;1480;51.456;6.670;2022-12-18T00:06:33;12.07;;;7.70;;
2940;SDS011;1480;51.456;6.670;2022-12-18T00:09:02;15.30;;;9.00;;
2940;SDS011;1480;51.456;6.670;2022-12-18T00:11:30;15.00;;;8.90;;
2940;SDS011;1480;51.456;6.670;2022-12-18T00:13:59;14.47;;;8.20;;
2940;SDS011;1480;51.456;6.670;2022-12-18T00:16:27;14.07;;;8.93;;
2940;SDS011;1480;51.456;6.670;2022-12-18T00:18:56;14.40;;;9.10;;
2940;SDS011;1480;51.456;6.670;2022-12-18T00:21:23;12.33;;;7.23;;
2940;SDS011;1480;51.456;6.670;2022-12-18T00:23:51;14.07;;;7.87;;
2940;SDS011;1480;51.456;6.670;2022-12-18T00:26:18;12.50;;;9.20;;
2940;SDS011;1480;51.456;6.670;2022-12-18T00:28:48;10.53;;;7.10;;
2940;SDS011;1480;51.456;6.670;2022-12-18T00:31:19;13.70;;;7.27;;
2940;SDS011;1480;51.456;6.670;2022-12-18T00:33:47;14.90;;;10.03;;
2940;SDS011;1480;51.456;6.670;2022-12-18T00:36:15;16.17;;;7.77;;
2940;SDS011;1480;51.456;6.670;2022-12-18T00:38:43;11.50;;;7.87;;
2940;SDS011;1480;51.456;6.670;2022-12-18T00:41:12;12.30;;;8.07;;
2940;SDS011;1480;51.456;6.670;2022-12-18T00:44:00;18.10;;;8.53;;
2940;SDS011;1480;51.456;6.670;2022-12-18T00:46:27;15.03;;;8.70;;
2940;SDS011;1480;51.456;6.670;2022-12-18T00:48:54;16.80;;;7.70;;
2940;SDS011;1480;51.456;6.670;2022-12-18T00:51:21;11.10;;;7.73;;
2940;SDS011;1480;51.456;6.670;2022-12-18T00:53:48;13.10;;;8.73;;
2940;SDS011;1480;51.456;6.670;2022-12-18T00:56:15;28.20;;;10.20;;
2940;SDS011;1480;51.456;6.670;2022-12-18T00:58:42;10.77;;;8.20;;
2940;SDS011;1480;51.456;6.670;2022-12-18T01:01:09;16.47;;;7.77;;
2940;SDS011;1480;51.456;6.670;2022-12-18T01:03:37;14.03;;;8.47;;
2940;SDS011;1480;51.456;6.670;2022-12-18T01:06:05;15.50;;;8.53;;
2940;SDS011;1480;51.456;6.670;2022-12-18T01:08:33;13.47;;;7.80;;
2940;SDS011;1480;51.456;6.670;2022-12-18T01:11:00;17.13;;;7.90;;
2940;SDS011;1480;51.456;6.670;2022-12-18T01:13:27;16.43;;;9.07;;
2940;SDS011;1480;51.456;6.670;2022-12-18T01:15:54;18.73;;;9.03;;
2940;SDS011;1480;51.456;6.670;2022-12-18T01:18:21;16.30;;;8.67;;
2940;SDS011;1480;51.456;6.670;2022-12-18T01:20:51;10.87;;;7.67;;
2940;SDS011;1480;51.456;6.670;2022-12-18T01:23:18;12.07;;;7.50;;
2940;SDS011;1480;51.456;6.670;2022-12-18T01:25:44;11.23;;;8.00;;
2940;SDS011;1480;51.456;6.670;2022-12-18T01:28:11;9.40;;;6.60;;
2940;SDS011;1480;51.456;6.670;2022-12-18T01:30:39;11.80;;;7.67;;
2940;SDS011;1480;51.456;6.670;2022-12-18T01:33:06;13.67;;;7.87;;
2940;SDS011;1480;51.456;6.670;2022-12-18T01:35:39;11.87;;;7.73;;
2940;SDS011;1480;51.456;6.670;2022-12-18T01:38:08;10.90;;;7.63;;
2940;SDS011;1480;51.456;6.670;2022-12-18T01:40:35;13.97;;;7.87;;
2940;SDS011;1480;51.456;6.670;2022-12-18T01:43:03;15.03;;;9.60;;
2940;SDS011;1480;51.456;6.670;2022-12-18T01:45:30;15.50;;;8.67;;
2940;SDS011;1480;51.456;6.670;2022-12-18T01:47:58;12.30;;;8.37;;
2940;SDS011;1480;51.456;6.670;2022-12-18T01:50:28;10.80;;;7.40;;
2940;SDS011;1480;51.456;6.670;2022-12-18T01:53:00;15.60;;;8.70;;
2940;SDS011;1480;51.456;6.670;2022-12-18T01:55:32;10.70;;;7.60;;
2940;SDS011;1480;51.456;6.670;2022-12-18T01:58:02;12.63;;;8.30;;
2940;SDS011;1480;51.456;6.670;2022-12-18T02:00:30;10.57;;;8.17;;
2940;SDS011;1480;51.456;6.670;2022-12-18T02:02:57;11.50;;;6.97;;
2940;SDS011;1480;51.456;6.670;2022-12-18T02:05:27;12.33;;;7.83;;
2940;SDS011;1480;51.456;6.670;2022-12-18T02:08:04;9.67;;;6.87;;
2940;SDS011;1480;51.456;6.670;2022-12-18T02:10:38;13.17;;;7.70;;
2940;SDS011;1480;51.456;6.670;2022-12-18T02:13:12;12.27;;;8.43;;
2940;SDS011;1480;51.456;6.670;2022-12-18T02:15:46;10.27;;;6.80;;
2940;SDS011;1480;51.456;6.670;2022-12-18T02:18:22;11.87;;;7.63;;
2940;SDS011;1480;51.456;6.670;2022-12-18T02:20:54;21.40;;;7.77;;
2940;SDS011;1480;51.456;6.670;2022-12-18T02:23:33;16.03;;;7.70;;
2940;SDS011;1480;51.456;6.670;2022-12-18T02:26:12;10.17;;;7.23;;
2940;SDS011;1480;51.456;6.670;2022-12-18T02:28:45;12.00;;;8.03;;
2940;SDS011;1480;51.456;6.670;2022-12-18T02:31:16;14.90;;;7.03;;
2940;SDS011;1480;51.456;6.670;2022-12-18T02:33:48;9.40;;;7.53;;
2940;SDS011;1480;51.456;6.670;2022-12-18T02:36:17;17.73;;;8.40;;
2940;SDS011;1480;51.456;6.670;2022-12-18T02:38:47;12.07;;;7.87;;
2940;SDS011;1480;51.456;6.670;2022-12-18T02:41:17;12.90;;;8.37;;
2940;SDS011;1480;51.456;6.670;2022-12-18T02:43:53;11.30;;;8.00;;
2940;SDS011;1480;51.456;6.670;2022-12-18T02:46:27;14.93;;;7.93;;
2940;SDS011;1480;51.456;6.670;2022-12-18T02:49:01;10.50;;;7.47;;
2940;SDS011;1480;51.456;6.670;2022-12-18T02:51:40;12.67;;;8.10;;
2940;SDS011;1480;51.456;6.670;2022-12-18T02:54:16;12.00;;;7.87;;
2940;SDS011;1480;51.456;6.670;2022-12-18T02:56:50;12.57;;;8.97;;
2940;SDS011;1480;51.456;6.670;2022-12-18T02:59:21;10.93;;;7.43;;
2940;SDS011;1480;51.456;6.670;2022-12-18T03:01:55;12.90;;;7.80;;
2940;SDS011;1480;51.456;6.670;2022-12-18T03:04:28;12.50;;;8.50;;
2940;SDS011;1480;51.456;6.670;2022-12-18T03:07:02;16.37;;;9.47;;
2940;SDS011;1480;51.456;6.670;2022-12-18T03:09:34;14.93;;;8.87;;
2940;SDS011;1480;51.456;6.670;2022-12-18T03:12:08;13.87;;;8.37;;
2940;SDS011;1480;51.456;6.670;2022-12-18T03:14:54;15.33;;;7.30;;
2940;SDS011;1480;51.456;6.670;2022-12-18T03:17:27;14.17;;;7.67;;
2940;SDS011;1480;51.456;6.670;2022-12-18T03:19:58;13.27;;;8.47;;
2940;SDS011;1480;51.456;6.670;2022-12-18T03:22:32;16.63;;;8.20;;
2940;SDS011;1480;51.456;6.670;2022-12-18T03:25:03;10.27;;;6.63;;
2940;SDS011;1480;51.456;6.670;2022-12-18T03:27:35;11.70;;;7.50;;
2940;SDS011;1480;51.456;6.670;2022-12-18T03:30:08;18.77;;;8.60;;
2940;SDS011;1480;51.456;6.670;2022-12-18T03:32:39;10.17;;;6.63;;
2940;SDS011;1480;51.456;6.670;2022-12-18T03:35:09;13.50;;;8.57;;
2940;SDS011;1480;51.456;6.670;2022-12-18T03:37:42;11.87;;;8.63;;
2940;SDS011;1480;51.456;6.670;2022-12-18T03:40:09;9.77;;;7.20;;
2940;SDS011;1480;51.456;6.670;2022-12-18T03:42:39;10.93;;;7.13;;
2940;SDS011;1480;51.456;6.670;2022-12-18T03:45:13;13.07;;;8.37;;
2940;SDS011;1480;51.456;6.670;2022-12-18T03:47:50;8.60;;;6.17;;
2940;SDS011;1480;51.456;6.670;2022-12-18T03:50:26;18.63;;;8.30;;
2940;SDS011;1480;51.456;6.670;2022-12-18T03:52:58;10.30;;;7.10;;
2940;SDS011;1480;51.456;6.670;2022-12-18T03:55:32;14.53;;;8.73;;
2940;SDS011;1480;51.456;6.670;2022-12-18T03:58:04;14.83;;;7.70;;
2940;SDS011;1480;51.456;6.670;2022-12-18T04:00:47;10.10;;;7.50;;
2940;SDS011;1480;51.456;6.670;2022-12-18T04:03:15;13.57;;;8.50;;
2940;SDS011;1480;51.456;6.670;2022-12-18T04:05:46;9.70;;;6.80;;
2940;SDS011;1480;51.456;6.670;2022-12-18T04:08:19;13.90;;;8.60;;
2940;SDS011;1480;51.456;6.670;2022-12-18T04:10:55;15.20;;;7.73;;
2940;SDS011;1480;51.456;6.670;2022-12-18T04:13:27;9.67;;;6.77;;
2940;SDS011;1480;51.456;6.670;2022-12-18T04:15:58;11.20;;;6.90;;
2940;SDS011;1480;51.456;6.670;2022-12-18T04:18:26;15.03;;;7.87;;
2940;SDS011;1480;51.456;6.670;2022-12-18T04:20:53;10.50;;;6.57;;
2940;SDS011;1480;51.456;6.670;2022-12-18T04:23:21;12.23;;;7.17;;
2940;SDS011;1480;51.456;6.670;2022-12-18T04:25:48;14.60;;;8.93;;
2940;SDS011;1480;51.456;6.670;2022-12-18T04:28:26;10.90;;;7.10;;
2940;SDS011;1480;51.456;6.670;2022-12-18T04:30:53;11.03;;;6.93;;
2940;SDS011;1480;51.456;6.670;2022-12-18T04:33:21;11.37;;;7.00;;
2940;SDS011;1480;51.456;6.670;2022-12-18T04:35:48;9.43;;;6.43;;
2940;SDS011;1480;51.456;6.670;2022-12-18T04:38:16;10.20;;;6.10;;
2940;SDS011;1480;51.456;6.670;2022-12-18T04:40:44;12.33;;;6.60;;
2940;SDS011;1480;51.456;6.670;2022-12-18T04:43:19;12.53;;;7.20;;
2940;SDS011;1480;51.456;6.670;2022-12-18T04:45:48;13.00;;;8.00;;
2940;SDS011;1480;51.456;6.670;2022-12-18T04:48:15;11.90;;;6.97;;
2940;SDS011;1480;51.456;6.670;2022-12-18T04:50:41;13.03;;;7.20;;
2940;SDS011;1480;51.456;6.670;2022-12-18T04:53:08;10.33;;;6.90;;
2940;SDS011;1480;51.456;6.670;2022-12-18T04:55:35;12.00;;;6.77;;
2940;SDS011;1480;51.456;6.670;2022-12-18T04:58:02;10.63;;;6.83;;
2940;SDS011;1480;51.456;6.670;2022-12-18T05:00:29;10.70;;;7.83;;
2940;SDS011;1480;51.456;6.670;2022-12-18T05:02:57;9.07;;;6.80;;
2940;SDS011;1480;51.456;6.670;2022-12-18T05:05:26;11.63;;;6.83;;
2940;SDS011;1480;51.456;6.670;2022-12-18T05:07:53;11.00;;;6.83;;
2940;SDS011;1480;51.456;6.670;2022-12-18T05:10:20;11.53;;;7.40;;
2940;SDS011;1480;51.456;6.670;2022-12-18T05:12:47;9.83;;;6.13;;
2940;SDS011;1480;51.456;6.670;2022-12-18T05:15:27;8.07;;;5.97;;
2940;SDS011;1480;51.456;6.670;2022-12-18T05:17:55;10.50;;;7.20;;
2940;SDS011;1480;51.456;6.670;2022-12-18T05:20:24;9.13;;;5.90;;
2940;SDS011;1480;51.456;6.670;2022-12-18T05:22:52;9.70;;;6.40;;
2940;SDS011;1480;51.456;6.670;2022-12-18T05:25:19;7.20;;;6.07;;
2940;SDS011;1480;51.456;6.670;2022-12-18T05:27:47;9.03;;;6.10;;
2940;SDS011;1480;51.456;6.670;2022-12-18T05:30:14;10.93;;;6.80;;
2940;SDS011;1480;51.456;6.670;2022-12-18T05:32:42;8.20;;;5.97;;
2940;SDS011;1480;51.456;6.670;2022-12-18T05:35:10;12.80;;;6.07;;
2940;SDS011;1480;51.456;6.670;2022-12-18T05:37:37;11.50;;;6.60;;
2940;SDS011;1480;51.456;6.670;2022-12-18T05:40:05;11.30;;;7.43;;
2940;SDS011;1480;51.456;6.670;2022-12-18T05:42:32;10.60;;;6.13;;
2940;SDS011;1480;51.456;6.670;2022-12-18T05:44:59;9.03;;;6.20;;
2940;SDS011;1480;51.456;6.670;2022-12-18T05:47:26;13.03;;;7.30;;
2940;SDS011;1480;51.456;6.670;2022-12-18T05:49:53;9.53;;;5.03;;
2940;SDS011;1480;51.456;6.670;2022-12-18T05:52:22;7.50;;;4.80;;
2940;SDS011;1480;51.456;6.670;2022-12-18T05:54:49;9.90;;;6.77;;
2940;SDS011;1480;51.456;6.670;2022-12-18T05:57:16;8.67;;;5.00;;
2940;SDS011;1480;51.456;6.670;2022-12-18T05:59:43;7.50;;;5.90;;
2940;SDS011;1480;51.456;6.670;2022-12-18T06:02:10;10.03;;;6.57;;
2940;SDS011;1480;51.456;6.670;2022-12-18T06:04:37;13.33;;;7.53;;
2940;SDS011;1480;51.456;6.670;2022-12-18T06:07:04;11.77;;;5.77;;
2940;SDS011;1480;51.456;6.670;2022-12-18T06:09:32;8.70;;;5.00;;
2940;SDS011;1480;51.456;6.670;2022-12-18T06:11:59;9.43;;;5.60;;
2940;SDS011;1480;51.456;6.670;2022-12-18T06:14:26;9.33;;;5.47;;
2940;SDS011;1480;51.456;6.670;2022-12-18T06:16:53;9.23;;;5.80;;
2940;SDS011;1480;51.456;6.670;2022-12-18T06:19:20;10.60;;;5.17;;
2940;SDS011;1480;51.456;6.670;2022-12-18T06:21:47;7.80;;;5.33;;
2940;SDS011;1480;51.456;6.670;2022-12-18T06:24:14;8.70;;;5.97;;
2940;SDS011;1480;51.456;6.670;2022-12-18T06:26:42;10.10;;;6.00;;
2940;SDS011;1480;51.456;6.670;2022-12-18T06:29:09;11.10;;;6.80;;
2940;SDS011;1480;51.456;6.670;2022-12-18T06:31:36;9.50;;;5.90;;
2940;SDS011;1480;51.456;6.670;2022-12-18T06:34:03;13.30;;;6.27;;
2940;SDS011;1480;51.456;6.670;2022-12-18T06:36:30;9.90;;;6.20;;
2940;SDS011;1480;51.456;6.670;2022-12-18T06:38:57;9.10;;;5.80;;
2940;SDS011;1480;51.456;6.670;2022-12-18T06:41:24;11.40;;;7.23;;
2940;SDS011;1480;51.456;6.670;2022-12-18T06:43:53;9.97;;;6.97;;
2940;SDS011;1480;51.456;6.670;2022-12-18T06:46:20;8.90;;;5.93;;
2940;SDS011;1480;51.456;6.670;2022-12-18T06:48:48;10.60;;;6.53;;
2940;SDS011;1480;51.456;6.670;2022-12-18T06:51:16;9.30;;;6.60;;
2940;SDS011;1480;51.456;6.670;2022-12-18T06:53:43;7.43;;;5.47;;
2940;SDS011;1480;51.456;6.670;2022-12-18T06:56:10;9.90;;;6.10;;
2940;SDS011;1480;51.456;6.670;2022-12-18T06:58:37;9.67;;;6.30;;
2940;SDS011;1480;51.456;6.670;2022-12-18T07:01:07;10.43;;;6.37;;
2940;SDS011;1480;51.456;6.670;2022-12-18T07:03:36;7.73;;;5.13;;
2940;SDS011;1480;51.456;6.670;2022-12-18T07:06:03;9.37;;;6.27;;
2940;SDS011;1480;51.456;6.670;2022-12-18T07:08:31;9.77;;;6.63;;
2940;SDS011;1480;51.456;6.670;2022-12-18T07:11:02;11.63;;;5.93;;
2940;SDS011;1480;51.456;6.670;2022-12-18T07:13:30;10.50;;;5.93;;
2940;SDS011;1480;51.456;6.670;2022-12-18T07:16:02;9.30;;;6.20;;
2940;SDS011;1480;51.456;6.670;2022-12-18T07:18:32;9.60;;;6.30;;
2940;SDS011;1480;51.456;6.670;2022-12-18T07:21:02;16.73;;;6.57;;
2940;SDS011;1480;51.456;6.670;2022-12-18T07:23:29;10.20;;;5.87;;
2940;SDS011;1480;51.456;6.670;2022-12-18T07:26:00;9.57;;;6.73;;
2940;SDS011;1480;51.456;6.670;2022-12-18T07:28:27;12.73;;;6.50;;
2940;SDS011;1480;51.456;6.670;2022-12-18T07:30:54;11.70;;;6.70;;
2940;SDS011;1480;51.456;6.670;2022-12-18T07:33:21;11.83;;;5.87;;
2940;SDS011;1480;51.456;6.670;2022-12-18T07:35:49;11.60;;;6.17;;
2940;SDS011;1480;51.456;6.670;2022-12-18T07:38:16;13.80;;;6.83;;
2940;SDS011;1480;51.456;6.670;2022-12-18T07:40:43;11.10;;;7.23;;
2940;SDS011;1480;51.456;6.670;2022-12-18T07:43:10;9.97;;;5.77;;
2940;SDS011;1480;51.456;6.670;2022-12-18T07:45:37;14.20;;;7.13;;
2940;SDS011;1480;51.456;6.670;2022-12-18T07:48:04;13.90;;;7.30;;
2940;SDS011;1480;51.456;6.670;2022-12-18T07:50:31;13.10;;;7.73;;
2940;SDS011;1480;51.456;6.670;2022-12-18T07:52:59;10.27;;;6.40;;
2940;SDS011;1480;51.456;6.670;2022-12-18T07:55:28;9.97;;;6.70;;
2940;SDS011;1480;51.456;6.670;2022-12-18T07:57:55;11.33;;;6.80;;
2940;SDS011;1480;51.456;6.670;2022-12-18T08:00:22;13.27;;;6.60;;
2940;SDS011;1480;51.456;6.670;2022-12-18T08:02:49;12.00;;;7.20;;
2940;SDS011;1480;51.456;6.670;2022-12-18T08:05:16;11.83;;;7.17;;
2940;SDS011;1480;51.456;6.670;2022-12-18T08:07:43;9.77;;;6.97;;
2940;SDS011;1480;51.456;6.670;2022-12-18T08:10:11;11.83;;;7.73;;
2940;SDS011;1480;51.456;6.670;2022-12-18T08:12:39;11.07;;;6.77;;
2940;SDS011;1480;51.456;6.670;2022-12-18T08:15:06;12.33;;;7.57;;
2940;SDS011;1480;51.456;6.670;2022-12-18T08:17:34;12.57;;;6.73;;
2940;SDS011;1480;51.456;6.670;2022-12-18T08:20:01;12.80;;;7.40;;
2940;SDS011;1480;51.456;6.670;2022-12-18T08:22:29;11.17;;;7.30;;
2940;SDS011;1480;51.456;6.670;2022-12-18T08:24:57;12.50;;;7.57;;
2940;SDS011;1480;51.456;6.670;2022-12-18T08:27:25;10.77;;;7.27;;
2940;SDS011;1480;51.456;6.670;2022-12-18T08:29:52;10.83;;;6.70;;
2940;SDS011;1480;51.456;6.670;2022-12-18T08:32:19;11.37;;;7.33;;
2940;SDS011;1480;51.456;6.670;2022-12-18T08:34:45;12.50;;;7.50;;
2940;SDS011;1480;51.456;6.670;2022-12-18T08:37:12;9.53;;;6.67;;
2940;SDS011;1480;51.456;6.670;2022-12-18T08:39:39;9.87;;;6.73;;
2940;SDS011;1480;51.456;6.670;2022-12-18T08:42:06;9.13;;;6.47;;
2940;SDS011;1480;51.456;6.670;2022-12-18T08:44:52;12.80;;;7.70;;
2940;SDS011;1480;51.456;6.670;2022-12-18T08:47:19;12.40;;;6.90;;
2940;SDS011;1480;51.456;6.670;2022-12-18T08:49:46;11.73;;;6.30;;
2940;SDS011;1480;51.456;6.670;2022-12-18T08:52:14;11.93;;;7.27;;
2940;SDS011;1480;51.456;6.670;2022-12-18T08:54:41;12.03;;;6.50;;
2940;SDS011;1480;51.456;6.670;2022-12-18T08:57:08;10.37;;;6.27;;
2940;SDS011;1480;51.456;6.670;2022-12-18T08:59:35;10.00;;;7.10;;
2940;SDS011;1480;51.456;6.670;2022-12-18T09:02:03;6.83;;;5.87;;
2940;SDS011;1480;51.456;6.670;2022-12-18T09:04:30;8.50;;;5.80;;
2940;SDS011;1480;51.456;6.670;2022-12-18T09:06:56;8.60;;;6.37;;
2940;SDS011;1480;51.456;6.670;2022-12-18T09:09:23;14.00;;;7.20;;
2940;SDS011;1480;51.456;6.670;2022-12-18T09:11:50;8.67;;;6.40;;
2940;SDS011;1480;51.456;6.670;2022-12-18T09:14:17;10.50;;;5.87;;
2940;SDS011;1480;51.456;6.670;2022-12-18T09:16:44;9.93;;;6.43;;
2940;SDS011;1480;51.456;6.670;2022-12-18T09:19:12;10.93;;;6.87;;
2940;SDS011;1480;51.456;6.670;2022-12-18T09:21:39;8.87;;;5.90;;
2940;SDS011;1480;51.456;6.670;2022-12-18T09:24:08;7.93;;;5.20;;
2940;SDS011;1480;51.456;6.670;2022-12-18T09:26:39;10.27;;;6.40;;
2940;SDS011;1480;51.456;6.670;2022-12-18T09:29:05;10.37;;;7.10;;
2940;SDS011;1480;51.456;6.670;2022-12-18T09:31:33;9.97;;;6.93;;
2940;SDS011;1480;51.456;6.670;2022-12-18T09:34:00;11.77;;;6.90;;
2940;SDS011;1480;51.456;6.670;2022-12-18T09:36:31;14.33;;;8.20;;
2940;SDS011;1480;51.456;6.670;2022-12-18T09:38:58;10.73;;;7.00;;
2940;SDS011;1480;51.456;6.670;2022-12-18T09:41:33;10.10;;;6.90;;
2940;SDS011;1480;51.456;6.670;2022-12-18T09:44:10;10.70;;;6.63;;
2940;SDS011;1480;51.456;6.670;2022-12-18T09:46:47;9.17;;;6.23;;
2940;SDS011;1480;51.456;6.670;2022-12-18T09:49:20;14.70;;;7.17;;
2940;SDS011;1480;51.456;6.670;2022-12-18T09:51:52;13.20;;;6.90;;
2940;SDS011;1480;51.456;6.670;2022-12-18T09:54:23;8.37;;;6.07;;
2940;SDS011;1480;51.456;6.670;2022-12-18T09:56:53;11.37;;;6.43;;
2940;SDS011;1480;51.456;6.670;2022-12-18T09:59:21;11.50;;;7.27;;
2940;SDS011;1480;51.456;6.670;2022-12-18T10:01:50;10.37;;;6.63;;
2940;SDS011;1480;51.456;6.670;2022-12-18T10:04:17;13.03;;;7.57;;
2940;SDS011;1480;51.456;6.670;2022-12-18T10:06:46;12.73;;;6.87;;
2940;SDS011;1480;51.456;6.670;2022-12-18T10:09:24;11.67;;;6.77;;
2940;SDS011;1480;51.456;6.670;2022-12-18T10:12:02;14.20;;;7.50;;
2940;SDS011;1480;51.456;6.670;2022-12-18T10:14:36;9.13;;;7.27;;
2940;SDS011;1480;51.456;6.670;2022-12-18T10:17:14;9.07;;;6.87;;
2940;SDS011;1480;51.456;6.670;2022-12-18T10:19:52;15.83;;;7.43;;
2940;SDS011;1480;51.456;6.670;2022-12-18T10:22:33;12.43;;;6.30;;
2940;SDS011;1480;51.456;6.670;2022-12-18T10:25:15;8.17;;;6.27;;
2940;SDS011;1480;51.456;6.670;2022-12-18T10:27:46;9.87;;;7.43;;
2940;SDS011;1480;51.456;6.670;2022-12-18T10:30:16;11.93;;;7.47;;
2940;SDS011;1480;51.456;6.670;2022-12-18T10:32:44;12.63;;;6.00;;
2940;SDS011;1480;51.456;6.670;2022-12-18T10:35:14;10.80;;;6.80;;
2940;SDS011;1480;51.456;6.670;2022-12-18T10:38:03;13.97;;;8.03;;
2940;SDS011;1480;51.456;6.670;2022-12-18T10:40:33;9.00;;;6.80;;
2940;SDS011;1480;51.456;6.670;2022-12-18T10:43:15;12.63;;;7.57;;
2940;SDS011;1480;51.456;6.670;2022-12-18T10:45:57;11.37;;;7.77;;
2940;SDS011;1480;51.456;6.670;2022-12-18T10:48:25;11.87;;;7.80;;
2940;SDS011;1480;51.456;6.670;2022-12-18T10:50:53;12.80;;;7.50;;
2940;SDS011;1480;51.456;6.670;2022-12-18T10:53:22;15.00;;;8.67;;
2940;SDS011;1480;51.456;6.670;2022-12-18T10:55:51;11.50;;;7.63;;
2940;SDS011;1480;51.456;6.670;2022-12-18T10:58:21;11.93;;;7.80;;
2940;SDS011;1480;51.456;6.670;2022-12-18T11:01:04;12.67;;;6.77;;
2940;SDS011;1480;51.456;6.670;2022-12-18T11:03:37;10.70;;;6.87;;
2940;SDS011;1480;51.456;6.670;2022-12-18T11:06:06;12.73;;;6.10;;
2940;SDS011;1480;51.456;6.670;2022-12-18T11:08:36;13.27;;;8.60;;
2940;SDS011;1480;51.456;6.670;2022-12-18T11:11:06;13.13;;;7.50;;
2940;SDS011;1480;51.456;6.670;2022-12-18T11:13:41;9.17;;;6.30;;
2940;SDS011;1480;51.456;6.670;2022-12-18T11:16:20;13.90;;;7.30;;
2940;SDS011;1480;51.456;6.670;2022-12-18T11:18:48;11.13;;;7.43;;
2940;SDS011;1480;51.456;6.670;2022-12-18T11:21:16;12.20;;;7.73;;
2940;SDS011;1480;51.456;6.670;2022-12-18T11:23:46;11.80;;;8.60;;
2940;SDS011;1480;51.456;6.670;2022-12-18T11:26:15;12.03;;;7.07;;
2940;SDS011;1480;51.456;6.670;2022-12-18T11:28:43;7.70;;;6.20;;
2940;SDS011;1480;51.456;6.670;2022-12-18T11:31:23;11.33;;;6.77;;
2940;SDS011;1480;51.456;6.670;2022-12-18T11:33:59;12.17;;;8.73;;
2940;SDS011;1480;51.456;6.670;2022-12-18T11:36:30;13.27;;;8.27;;
2940;SDS011;1480;51.456;6.670;2022-12-18T11:39:03;11.13;;;6.87;;
2940;SDS011;1480;51.456;6.670;2022-12-18T11:41:38;11.03;;;8.60;;
2940;SDS011;1480;51.456;6.670;2022-12-18T11:44:29;10.30;;;7.30;;
2940;SDS011;1480;51.456;6.670;2022-12-18T11:47:01;10.50;;;6.50;;
2940;SDS011;1480;51.456;6.670;2022-12-18T11:49:35;12.80;;;8.97;;
2940;SDS011;1480;51.456;6.670;2022-12-18T11:52:07;12.43;;;7.60;;
2940;SDS011;1480;51.456;6.670;2022-12-18T11:54:43;10.90;;;7.43;;
2940;SDS011;1480;51.456;6.670;2022-12-18T11:57:11;12.27;;;7.80;;
2940;SDS011;1480;51.456;6.670;2022-12-18T11:59:47;12.50;;;7.33;;
2940;SDS011;1480;51.456;6.670;2022-12-18T12:02:33;12.67;;;8.17;;
2940;SDS011;1480;51.456;6.670;2022-12-18T12:08:10;11.33;;;7.73;;
2940;SDS011;1480;51.456;6.670;2022-12-18T12:10:48;12.20;;;8.27;;
2940;SDS011;1480;51.456;6.670;2022-12-18T12:13:26;10.30;;;6.70;;
2940;SDS011;1480;51.456;6.670;2022-12-18T12:16:06;14.80;;;9.00;;
2940;SDS011;1480;51.456;6.670;2022-12-18T12:18:43;13.40;;;8.67;;
2940;SDS011;1480;51.456;6.670;2022-12-18T12:21:20;13.00;;;8.33;;
2940;SDS011;1480;51.456;6.670;2022-12-18T12:23:53;13.53;;;8.00;;
2940;SDS011;1480;51.456;6.670;2022-12-18T12:26:29;9.80;;;6.97;;
2940;SDS011;1480;51.456;6.670;2022-12-18T12:29:09;14.40;;;8.90;;
2940;SDS011;1480;51.456;6.670;2022-12-18T12:31:53;15.00;;;8.30;;
2940;SDS011;1480;51.456;6.670;2022-12-18T12:34:31;15.33;;;8.07;;
2940;SDS011;1480;51.456;6.670;2022-12-18T12:37:07;14.57;;;9.20;;
2940;SDS011;1480;51.456;6.670;2022-12-18T12:39:44;16.10;;;9.20;;
2940;SDS011;1480;51.456;6.670;2022-12-18T12:42:15;16.90;;;9.40;;
2940;SDS011;1480;51.456;6.670;2022-12-18T12:45:13;13.67;;;8.30;;
2940;SDS011;1480;51.456;6.670;2022-12-18T12:47:44;15.50;;;9.40;;
2940;SDS011;1480;51.456;6.670;2022-12-18T12:50:15;13.23;;;7.63;;
2940;SDS011;1480;51.456;6.670;2022-12-18T12:52:45;16.67;;;9.37;;
2940;SDS011;1480;51.456;6.670;2022-12-18T12:55:16;13.43;;;7.50;;
2940;SDS011;1480;51.456;6.670;2022-12-18T12:57:48;14.47;;;8.83;;
2940;SDS011;1480;51.456;6.670;2022-12-18T13:00:22;14.47;;;9.10;;
2940;SDS011;1480;51.456;6.670;2022-12-18T13:02:51;14.40;;;8.67;;
2940;SDS011;1480;51.456;6.670;2022-12-18T13:05:26;14.30;;;8.87;;
2940;SDS011;1480;51.456;6.670;2022-12-18T13:08:00;13.13;;;9.13;;
2940;SDS011;1480;51.456;6.670;2022-12-18T13:10:33;14.93;;;9.70;;
2940;SDS011;1480;51.456;6.670;2022-12-18T13:13:03;22.03;;;9.00;;
2940;SDS011;1480;51.456;6.670;2022-12-18T13:15:34;13.60;;;8.93;;
2940;SDS011;1480;51.456;6.670;2022-12-18T13:18:15;19.50;;;10.87;;
2940;SDS011;1480;51.456;6.670;2022-12-18T13:20:48;14.20;;;9.77;;
2940;SDS011;1480;51.456;6.670;2022-12-18T13:23:25;14.33;;;9.40;;
2940;SDS011;1480;51.456;6.670;2022-12-18T13:25:54;14.07;;;9.70;;
2940;SDS011;1480;51.456;6.670;2022-12-18T13:28:24;19.80;;;10.93;;
2940;SDS011;1480;51.456;6.670;2022-12-18T13:34:24;16.23;;;10.10;;
2940;SDS011;1480;51.456;6.670;2022-12-18T13:36:54;15.80;;;10.17;;
2940;SDS011;1480;51.456;6.670;2022-12-18T13:39:33;13.10;;;9.43;;
2940;SDS011;1480;51.456;6.670;2022-12-18T13:48:14;20.70;;;10.70;;
2940;SDS011;1480;51.456;6.670;2022-12-18T13:50:47;18.70;;;10.97;;
2940;SDS011;1480;51.456;6.670;2022-12-18T13:53:20;15.80;;;10.70;;
2940;SDS011;1480;51.456;6.670;2022-12-18T13:55:49;15.07;;;9.13;;
2940;SDS011;1480;51.456;6.670;2022-12-18T13:58:16;17.60;;;11.20;;
2940;SDS011;1480;51.456;6.670;2022-12-18T14:00:45;15.90;;;10.57;;
2940;SDS011;1480;51.456;6.670;2022-12-18T14:03:16;21.10;;;10.50;;
2940;SDS011;1480;51.456;6.670;2022-12-18T14:05:45;17.03;;;9.97;;
2940;SDS011;1480;51.456;6.670;2022-12-18T14:08:18;17.23;;;10.17;;
2940;SDS011;1480;51.456;6.670;2022-12-18T14:10:45;16.00;;;9.60;;
2940;SDS011;1480;51.456;6.670;2022-12-18T14:13:17;15.50;;;11.27;;
2940;SDS011;1480;51.456;6.670;2022-12-18T14:15:49;17.73;;;10.50;;
2940;SDS011;1480;51.456;6.670;2022-12-18T14:18:19;19.13;;;11.30;;
2940;SDS011;1480;51.456;6.670;2022-12-18T14:20:49;18.33;;;12.60;;
2940;SDS011;1480;51.456;6.670;2022-12-18T14:23:28;19.03;;;11.87;;
2940;SDS011;1480;51.456;6.670;2022-12-18T14:25:56;17.20;;;11.57;;
2940;SDS011;1480;51.456;6.670;2022-12-18T14:28:23;17.67;;;11.10;;
2940;SDS011;1480;51.456;6.670;2022-12-18T14:30:53;25.47;;;11.90;;
2940;SDS011;1480;51.456;6.670;2022-12-18T14:33:22;21.30;;;10.10;;
2940;SDS011;1480;51.456;6.670;2022-12-18T14:35:54;18.90;;;10.47;;
2940;SDS011;1480;51.456;6.670;2022-12-18T14:38:25;15.87;;;11.77;;
2940;SDS011;1480;51.456;6.670;2022-12-18T14:40:58;17.17;;;11.10;;
2940;SDS011;1480;51.456;6.670;2022-12-18T14:43:26;17.60;;;11.67;;
2940;SDS011;1480;51.456;6.670;2022-12-18T14:45:56;15.83;;;11.20;;
2940;SDS011;1480;51.456;6.670;2022-12-18T14:48:32;20.70;;;11.90;;
2940;SDS011;1480;51.456;6.670;2022-12-18T14:51:03;19.37;;;12.00;;
2940;SDS011;1480;51.456;6.670;2022-12-18T14:53:33;17.57;;;10.90;;
2940;SDS011;1480;51.456;6.670;2022-12-18T14:56:02;21.87;;;13.50;;
2940;SDS011;1480;51.456;6.670;2022-12-18T14:58:30;21.23;;;13.17;;
2940;SDS011;1480;51.456;6.670;2022-12-18T15:00:58;26.57;;;12.00;;
2940;SDS011;1480;51.456;6.670;2022-12-18T15:03:25;19.43;;;11.47;;
2940;SDS011;1480;51.456;6.670;2022-12-18T15:05:52;24.33;;;14.03;;
2940;SDS011;1480;51.456;6.670;2022-12-18T15:08:36;18.07;;;11.30;;
2940;SDS011;1480;51.456;6.670;2022-12-18T15:11:03;18.77;;;11.63;;
2940;SDS011;1480;51.456;6.670;2022-12-18T15:13:54;22.50;;;12.83;;
2940;SDS011;1480;51.456;6.670;2022-12-18T15:16:22;24.70;;;13.40;;
2940;SDS011;1480;51.456;6.670;2022-12-18T15:18:49;19.97;;;12.37;;
2940;SDS011;1480;51.456;6.670;2022-12-18T15:21:23;18.60;;;11.97;;
2940;SDS011;1480;51.456;6.670;2022-12-18T15:23:55;19.07;;;12.63;;
2940;SDS011;1480;51.456;6.670;2022-12-18T15:26:25;18.83;;;13.40;;
2940;SDS011;1480;51.456;6.670;2022-12-18T15:28:52;18.50;;;11.23;;
2940;SDS011;1480;51.456;6.670;2022-12-18T15:31:29;25.20;;;14.20;;
2940;SDS011;1480;51.456;6.670;2022-12-18T15:34:05;24.63;;;14.73;;
2940;SDS011;1480;51.456;6.670;2022-12-18T15:36:38;19.33;;;12.83;;